Decoded Metar for KGAF ( in ) (IATA:) | Meteo·Mobile Aviation Weather
aviador You're here:

KGAF Decoded Metar

in
Report Time2019-10-21 06:55:00
UTC Time2019-10-21 07:11:39
Flight Rules vfr VFR
WindCalm
Visibility9656 m
Phenomena:Light Rain
Clouds:N/A
CeilingNone
Temp07°C
Dew Point07°C (100% RH)
AAT6.3°C
QNH1011 hPa
Raw Report
KGAF 210655Z AUTO 00000KT 6SM -RA CLR 07/07 A2986 RMK AO2=

Extra information for KGAF:More info

Social comments